createdAt,value
2023-04-22T00:02:49.771Z,8.10
2023-04-22T00:05:51.531Z,8.05
2023-04-22T00:08:53.117Z,8.00
2023-04-22T00:11:54.628Z,8.02
2023-04-22T00:14:56.244Z,7.97
2023-04-22T00:17:58.263Z,7.97
2023-04-22T00:20:59.866Z,7.96
2023-04-22T00:24:01.441Z,7.86
2023-04-22T00:27:02.939Z,7.87
2023-04-22T00:30:05.191Z,7.90
2023-04-22T00:33:06.736Z,7.80
2023-04-22T00:36:08.364Z,7.87
2023-04-22T00:39:09.898Z,7.82
2023-04-22T00:42:11.398Z,7.81
2023-04-22T00:45:15.072Z,7.83
2023-04-22T00:48:16.530Z,7.81
2023-04-22T00:51:18.014Z,7.74
2023-04-22T00:54:19.651Z,7.80
2023-04-22T00:57:21.168Z,7.79
2023-04-22T01:00:27.118Z,7.72
2023-04-22T01:03:30.474Z,7.61
2023-04-22T01:06:32.458Z,7.52
2023-04-22T01:09:33.904Z,7.48
2023-04-22T01:12:35.398Z,7.38
2023-04-22T01:15:37.069Z,7.38
2023-04-22T01:18:38.589Z,7.39
2023-04-22T01:21:40.736Z,7.36
2023-04-22T01:24:42.240Z,7.26
2023-04-22T01:27:44.160Z,7.17
2023-04-22T01:30:45.748Z,7.06
2023-04-22T01:33:48.278Z,6.95
2023-04-22T01:36:50.411Z,6.92
2023-04-22T01:39:51.891Z,6.86
2023-04-22T01:42:53.332Z,6.75
2023-04-22T01:45:54.857Z,6.77
2023-04-22T01:48:56.294Z,6.78
2023-04-22T01:52:01.292Z,6.71
2023-04-22T01:55:02.751Z,6.76
2023-04-22T01:58:04.623Z,6.69
2023-04-22T02:01:06.738Z,6.64
2023-04-22T02:04:08.254Z,6.49
2023-04-22T02:07:09.763Z,6.44
2023-04-22T02:10:11.995Z,6.41
2023-04-22T02:13:13.475Z,6.33
2023-04-22T02:16:15.012Z,6.32
2023-04-22T02:19:16.529Z,6.28
2023-04-22T02:22:18.034Z,6.26
2023-04-22T02:25:19.696Z,6.34
2023-04-22T02:28:21.164Z,6.30
2023-04-22T02:31:22.752Z,6.33
2023-04-22T02:34:24.279Z,6.35
2023-04-22T02:37:25.751Z,6.35
2023-04-22T02:40:27.228Z,6.23
2023-04-22T02:43:29.014Z,6.19
2023-04-22T02:46:30.595Z,6.19
2023-04-22T02:49:32.104Z,6.17
2023-04-22T02:52:33.977Z,6.16
2023-04-22T02:55:35.506Z,6.17
2023-04-22T02:58:36.982Z,6.10
2023-04-22T03:01:38.560Z,6.14
2023-04-22T03:04:40.049Z,6.13
2023-04-22T03:07:41.616Z,6.14
2023-04-22T03:10:43.108Z,6.18
2023-04-22T03:13:44.565Z,6.14
2023-04-22T03:16:46.071Z,5.91
2023-04-22T03:19:47.704Z,5.97
2023-04-22T03:22:49.149Z,6.02
2023-04-22T03:25:50.959Z,5.90
2023-04-22T03:28:52.434Z,5.97
2023-04-22T03:31:53.984Z,6.03
2023-04-22T03:34:55.620Z,6.00
2023-04-22T03:37:57.095Z,5.94
2023-04-22T03:40:58.567Z,5.90
2023-04-22T03:44:01.813Z,5.88
2023-04-22T03:47:03.920Z,5.86
2023-04-22T03:50:06.136Z,5.82
2023-04-22T03:53:07.582Z,5.86
2023-04-22T03:56:09.100Z,5.86
2023-04-22T03:59:10.630Z,5.86
2023-04-22T04:02:12.172Z,5.85
2023-04-22T04:05:13.875Z,5.81
2023-04-22T04:08:15.903Z,5.73
2023-04-22T04:11:17.395Z,5.72
2023-04-22T04:14:18.859Z,5.70
2023-04-22T04:17:20.611Z,5.66
2023-04-22T04:20:22.695Z,5.52
2023-04-22T04:23:24.161Z,5.53
2023-04-22T04:26:27.508Z,5.52
2023-04-22T04:29:29.065Z,5.47
2023-04-22T04:32:34.301Z,5.59
2023-04-22T04:35:37.828Z,5.52
2023-04-22T04:38:39.483Z,5.58
2023-04-22T04:41:41.161Z,5.43
2023-04-22T04:44:42.685Z,5.46
2023-04-22T04:47:45.135Z,5.52
2023-04-22T04:50:47.140Z,5.50
2023-04-22T04:53:48.593Z,5.39
2023-04-22T04:56:50.386Z,5.36
2023-04-22T04:59:51.940Z,5.41
2023-04-22T05:02:53.520Z,5.41
2023-04-22T05:05:55.066Z,5.42
2023-04-22T05:08:56.496Z,5.48
2023-04-22T05:11:57.974Z,5.52
2023-04-22T05:14:59.425Z,5.51
2023-04-22T05:18:00.935Z,5.58
2023-04-22T05:21:04.169Z,5.50
2023-04-22T05:24:05.840Z,5.65
2023-04-22T05:27:07.865Z,5.69
2023-04-22T05:30:09.739Z,5.70
2023-04-22T05:33:11.358Z,5.70
2023-04-22T05:36:12.853Z,5.87
2023-04-22T05:39:14.332Z,5.92
2023-04-22T05:42:15.945Z,5.88
2023-04-22T05:45:17.729Z,5.92
2023-04-22T05:48:19.242Z,5.98
2023-04-22T05:51:20.757Z,6.00
2023-04-22T05:54:22.213Z,5.99
2023-04-22T05:57:23.662Z,6.04
2023-04-22T06:00:25.100Z,6.15
2023-04-22T06:03:26.830Z,6.23
2023-04-22T06:06:28.472Z,6.34
2023-04-22T06:09:29.943Z,6.36
2023-04-22T06:12:32.811Z,6.52
2023-04-22T06:15:34.460Z,6.62
2023-04-22T06:18:37.880Z,6.70
2023-04-22T06:21:40.510Z,6.90
2023-04-22T06:24:41.969Z,6.97
2023-04-22T06:27:43.418Z,6.97
2023-04-22T06:30:44.908Z,7.06
2023-04-22T06:33:46.508Z,7.11
2023-04-22T06:36:47.951Z,7.17
2023-04-22T06:39:49.431Z,7.30
2023-04-22T06:42:50.867Z,7.49
2023-04-22T06:45:52.334Z,7.61
2023-04-22T06:48:53.783Z,7.75
2023-04-22T06:51:55.272Z,7.81
2023-04-22T06:54:56.760Z,8.04
2023-04-22T06:58:00.486Z,8.26
2023-04-22T07:01:01.959Z,8.43
2023-04-22T07:04:03.575Z,8.71
2023-04-22T07:07:05.157Z,8.96
2023-04-22T07:10:06.954Z,9.25
2023-04-22T07:13:08.400Z,9.56
2023-04-22T07:16:09.918Z,9.80
2023-04-22T07:19:11.523Z,10.12
2023-04-22T07:22:12.971Z,10.38
2023-04-22T07:25:14.425Z,10.68
2023-04-22T07:28:16.260Z,10.89
2023-04-22T07:31:17.758Z,10.99
2023-04-22T07:34:19.316Z,11.18
2023-04-22T07:37:21.996Z,11.60
2023-04-22T07:40:23.445Z,11.86
2023-04-22T07:43:24.930Z,12.01
2023-04-22T07:46:26.355Z,12.09
2023-04-22T07:49:27.867Z,12.42
2023-04-22T07:52:30.281Z,12.71
2023-04-22T07:55:31.908Z,12.91
2023-04-22T07:58:33.357Z,13.18
2023-04-22T08:01:34.815Z,13.44
2023-04-22T08:04:37.057Z,13.65
2023-04-22T08:07:38.585Z,13.98
2023-04-22T08:10:40.049Z,14.21
2023-04-22T08:13:41.768Z,14.56
2023-04-22T08:16:43.225Z,15.17
2023-04-22T08:19:45.232Z,15.72
2023-04-22T08:22:47.198Z,16.18
2023-04-22T08:25:48.764Z,16.51
2023-04-22T08:28:50.267Z,16.90
2023-04-22T08:31:51.701Z,18.00
2023-04-22T08:34:54.217Z,18.62
2023-04-22T08:37:59.144Z,19.15
2023-04-22T08:41:00.640Z,19.68
2023-04-22T08:44:02.100Z,19.55
2023-04-22T08:47:03.726Z,19.15
2023-04-22T08:50:06.304Z,19.92
2023-04-22T08:53:07.752Z,19.91
2023-04-22T08:56:09.207Z,21.06
2023-04-22T08:59:13.933Z,21.62
2023-04-22T09:02:21.941Z,21.74
2023-04-22T09:05:23.884Z,21.95
2023-04-22T09:08:26.584Z,22.11
2023-04-22T09:11:28.882Z,21.57
2023-04-22T09:14:30.328Z,21.27
2023-04-22T09:17:35.027Z,20.90
2023-04-22T09:20:36.493Z,22.07
2023-04-22T09:23:48.281Z,22.52
2023-04-22T09:26:49.640Z,21.39
2023-04-22T09:29:51.484Z,20.85
2023-04-22T09:32:54.744Z,21.46
2023-04-22T09:35:56.290Z,21.47
2023-04-22T09:38:58.487Z,21.80
2023-04-22T09:41:59.934Z,21.70
2023-04-22T09:45:02.161Z,22.61
2023-04-22T09:48:08.122Z,23.46
2023-04-22T09:51:19.078Z,22.70
2023-04-22T09:54:20.528Z,22.24
2023-04-22T09:57:22.028Z,22.40
2023-04-22T10:00:25.225Z,23.14
2023-04-22T10:03:26.709Z,23.56
2023-04-22T10:06:28.152Z,21.45
2023-04-22T10:09:29.638Z,21.69
2023-04-22T10:12:35.514Z,19.99
2023-04-22T10:15:42.296Z,20.31
2023-04-22T10:18:43.771Z,21.08
2023-04-22T10:21:46.061Z,21.37
2023-04-22T10:24:47.599Z,21.69
2023-04-22T10:28:03.195Z,21.34
2023-04-22T10:31:21.367Z,20.96
2023-04-22T10:34:22.918Z,20.60
2023-04-22T10:37:24.317Z,20.98
2023-04-22T10:40:25.894Z,20.46
2023-04-22T10:43:45.654Z,20.38
2023-04-22T10:46:50.212Z,20.51
2023-04-22T10:49:51.757Z,20.78
2023-04-22T10:52:59.647Z,20.93
2023-04-22T10:56:03.020Z,21.48
2023-04-22T10:59:17.196Z,21.90
2023-04-22T11:02:19.124Z,21.81
2023-04-22T11:05:22.826Z,21.14
2023-04-22T11:08:25.693Z,20.52
2023-04-22T11:11:27.251Z,20.44
2023-04-22T11:14:28.727Z,20.26
2023-04-22T11:17:34.233Z,20.23
2023-04-22T11:20:40.486Z,20.95
2023-04-22T11:23:52.867Z,20.60
2023-04-22T11:27:11.162Z,20.99
2023-04-22T11:30:17.580Z,20.35
2023-04-22T11:33:19.415Z,20.58
2023-04-22T11:36:22.195Z,20.82
2023-04-22T11:39:34.222Z,21.19
2023-04-22T11:42:36.921Z,21.55
2023-04-22T11:45:38.929Z,22.07
2023-04-22T11:48:42.640Z,21.22
2023-04-22T11:51:57.959Z,20.96
2023-04-22T11:55:04.645Z,21.10
2023-04-22T11:58:09.698Z,20.46
2023-04-22T12:01:15.803Z,20.63
2023-04-22T12:04:17.648Z,20.29
2023-04-22T12:07:19.364Z,20.31
2023-04-22T12:10:23.042Z,20.01
2023-04-22T12:13:32.989Z,19.72
2023-04-22T12:16:41.588Z,20.32
2023-04-22T12:19:49.380Z,21.16
2023-04-22T12:22:53.058Z,21.91
2023-04-22T12:25:56.786Z,22.97
2023-04-22T12:29:02.848Z,22.75
2023-04-22T12:32:04.892Z,23.14
2023-04-22T12:35:08.483Z,23.49
2023-04-22T12:38:12.839Z,23.51
2023-04-22T12:41:15.827Z,23.13
2023-04-22T12:44:17.673Z,21.20
2023-04-22T12:47:20.049Z,21.39
2023-04-22T12:50:21.754Z,21.10
2023-04-22T12:53:23.463Z,20.59
2023-04-22T12:56:27.612Z,20.75
2023-04-22T12:59:29.439Z,20.20
2023-04-22T13:02:31.252Z,20.46
2023-04-22T13:05:33.072Z,20.33
2023-04-22T13:08:36.954Z,20.52
2023-04-22T13:11:41.621Z,21.30
2023-04-22T13:14:43.449Z,22.02
2023-04-22T13:17:47.171Z,21.73
2023-04-22T13:20:52.328Z,21.02
2023-04-22T13:23:54.015Z,20.74
2023-04-22T13:26:56.141Z,20.68
2023-04-22T13:29:57.739Z,20.99
2023-04-22T13:32:59.333Z,20.68
2023-04-22T13:36:02.146Z,20.71
2023-04-22T13:39:06.756Z,20.71
2023-04-22T13:42:10.114Z,21.00
2023-04-22T13:45:25.098Z,21.38
2023-04-22T13:48:29.159Z,20.56
2023-04-22T13:51:32.249Z,20.34
2023-04-22T13:54:33.920Z,20.63
2023-04-22T13:57:35.549Z,20.53
2023-04-22T14:03:55.907Z,20.02
2023-04-22T14:06:58.956Z,20.64
2023-04-22T14:13:26.985Z,20.64
2023-04-22T14:16:31.226Z,20.73
2023-04-22T14:19:38.291Z,21.21
2023-04-22T14:22:50.914Z,21.59
2023-04-22T14:25:52.583Z,22.00
2023-04-22T14:28:54.227Z,22.40
2023-04-22T14:32:21.670Z,22.13
2023-04-22T14:35:23.373Z,21.55
2023-04-22T14:38:25.015Z,21.34
2023-04-22T14:41:26.520Z,21.10
2023-04-22T14:44:28.050Z,20.88
2023-04-22T14:47:30.275Z,20.52
2023-04-22T14:50:31.899Z,20.33
2023-04-22T14:53:34.113Z,20.07
2023-04-22T14:56:36.536Z,19.96
2023-04-22T14:59:38.370Z,20.25
2023-04-22T15:02:40.267Z,20.39
2023-04-22T15:05:42.474Z,20.24
2023-04-22T15:08:44.055Z,20.19
2023-04-22T15:11:48.466Z,20.26
2023-04-22T15:14:50.030Z,19.79
2023-04-22T15:17:51.631Z,19.96
2023-04-22T15:20:53.203Z,19.71
2023-04-22T15:23:54.679Z,19.52
2023-04-22T15:26:56.776Z,19.32
2023-04-22T15:29:58.324Z,19.20
2023-04-22T15:32:59.948Z,19.35
2023-04-22T15:36:04.092Z,19.53
2023-04-22T15:39:05.828Z,19.33
2023-04-22T15:42:07.347Z,19.31
2023-04-22T15:45:18.270Z,19.19
2023-04-22T15:48:20.182Z,19.19
2023-04-22T15:51:24.043Z,19.09
2023-04-22T15:54:25.931Z,18.92
2023-04-22T15:57:34.519Z,18.74
2023-04-22T16:00:48.869Z,18.73
2023-04-22T16:03:57.708Z,18.74
2023-04-22T16:06:59.716Z,18.47
2023-04-22T16:10:10.558Z,18.44
2023-04-22T16:13:12.130Z,18.15
2023-04-22T16:16:27.603Z,17.92
2023-04-22T16:19:36.799Z,17.61
2023-04-22T16:22:49.623Z,17.61
2023-04-22T16:25:51.405Z,17.39
2023-04-22T16:28:58.598Z,17.08
2023-04-22T16:32:00.195Z,16.35
2023-04-22T16:35:01.867Z,15.88
2023-04-22T16:38:07.075Z,15.75
2023-04-22T16:41:38.158Z,15.43
2023-04-22T16:44:54.665Z,15.22
2023-04-22T16:47:59.291Z,15.10
2023-04-22T16:51:04.238Z,15.15
2023-04-22T16:54:08.278Z,15.18
2023-04-22T16:57:12.859Z,15.20
2023-04-22T17:00:28.268Z,15.08
2023-04-22T18:02:25.870Z,13.17
2023-04-22T18:09:37.156Z,12.86
2023-04-22T18:13:26.886Z,13.18
2023-04-22T18:16:51.479Z,13.11
2023-04-22T18:20:16.829Z,13.15
2023-04-22T18:23:22.413Z,13.07
2023-04-22T18:26:26.742Z,12.77
2023-04-22T18:29:28.277Z,12.51
2023-04-22T18:32:36.098Z,12.73
2023-04-22T18:35:43.837Z,12.64
2023-04-22T18:38:49.489Z,12.66
2023-04-22T18:41:57.684Z,12.85
2023-04-22T18:46:07.333Z,12.94
2023-04-22T18:49:27.672Z,12.79
2023-04-22T18:52:44.635Z,12.77
2023-04-22T18:56:24.672Z,12.65
2023-04-22T19:33:31.088Z,12.28
2023-04-22T19:36:40.172Z,12.21
2023-04-22T19:40:01.347Z,12.33
2023-04-22T19:43:27.460Z,12.34
2023-04-22T19:46:41.398Z,12.28
2023-04-22T19:49:54.466Z,12.18
2023-04-22T19:53:39.717Z,12.22
2023-04-22T19:57:16.676Z,12.13
2023-04-22T20:00:55.376Z,11.99
2023-04-22T20:08:50.733Z,11.94
2023-04-22T20:12:35.514Z,12.08
2023-04-22T20:15:41.871Z,12.02
2023-04-22T20:28:05.780Z,11.82
2023-04-22T20:51:51.547Z,11.52
2023-04-22T20:58:16.689Z,11.36
2023-04-22T21:01:37.149Z,11.37
2023-04-22T21:04:39.257Z,11.32
2023-04-22T21:08:21.008Z,11.35
2023-04-22T21:36:58.832Z,11.20
2023-04-22T21:53:57.904Z,11.13
2023-04-22T21:57:23.884Z,11.25
2023-04-22T22:04:53.452Z,11.23
2023-04-22T22:08:00.143Z,11.18
2023-04-22T22:11:27.523Z,11.33
2023-04-22T22:14:57.693Z,11.31
2023-04-22T22:18:07.785Z,11.31
2023-04-22T22:22:03.718Z,11.38
2023-04-22T22:25:07.445Z,11.19
2023-04-22T22:28:09.344Z,11.64
2023-04-22T22:31:10.870Z,11.53
2023-04-22T22:34:25.612Z,11.70
2023-04-22T22:37:27.226Z,11.93
2023-04-22T22:40:39.271Z,12.45
2023-04-22T22:47:40.333Z,12.31
2023-04-22T22:50:48.638Z,12.18
2023-04-22T22:59:49.521Z,12.04
2023-04-22T23:30:46.669Z,11.51
2023-04-22T23:33:52.051Z,11.56
2023-04-22T23:36:53.832Z,11.58
2023-04-22T23:39:55.570Z,11.46
2023-04-22T23:42:57.177Z,11.36
2023-04-22T23:45:58.861Z,11.25
2023-04-22T23:49:01.630Z,11.12
2023-04-22T23:52:03.351Z,11.15
2023-04-22T23:55:39.185Z,11.17
2023-04-22T23:58:51.407Z,10.78
